createdAt,value
2019-02-27T00:00:49.240Z,4.70
2019-02-27T00:03:28.953Z,4.70
2019-02-27T00:06:03.786Z,4.70
2019-02-27T00:08:39.158Z,4.80
2019-02-27T00:11:14.808Z,4.80
2019-02-27T00:13:49.856Z,4.80
2019-02-27T00:16:24.870Z,5.00
2019-02-27T00:18:59.901Z,5.00
2019-02-27T00:21:35.260Z,4.90
2019-02-27T00:24:10.354Z,4.80
2019-02-27T00:26:46.763Z,4.80
2019-02-27T00:29:21.786Z,4.70
2019-02-27T00:31:56.824Z,4.70
2019-02-27T00:34:33.099Z,4.60
2019-02-27T00:37:08.793Z,4.60
2019-02-27T00:39:43.822Z,4.60
2019-02-27T00:42:20.672Z,4.50
2019-02-27T00:44:55.645Z,4.40
2019-02-27T00:47:30.680Z,4.30
2019-02-27T00:50:07.582Z,4.30
2019-02-27T00:52:43.204Z,4.30
2019-02-27T00:55:18.254Z,4.30
2019-02-27T00:57:54.442Z,4.20
2019-02-27T01:00:30.126Z,4.10
2019-02-27T01:03:05.380Z,4.10
2019-02-27T01:05:41.196Z,4.00
2019-02-27T01:08:16.774Z,4.10
2019-02-27T01:10:51.813Z,4.10
2019-02-27T01:13:28.939Z,4.20
2019-02-27T01:16:03.595Z,4.20
2019-02-27T01:18:38.942Z,4.10
2019-02-27T01:21:14.264Z,4.10
2019-02-27T01:23:49.622Z,4.10
2019-02-27T01:26:24.981Z,4.00
2019-02-27T01:29:00.050Z,3.90
2019-02-27T01:31:35.107Z,3.90
2019-02-27T01:34:11.359Z,3.90
2019-02-27T01:36:47.081Z,3.80
2019-02-27T01:39:22.115Z,3.80
2019-02-27T01:41:57.986Z,3.80
2019-02-27T01:44:34.819Z,3.80
2019-02-27T01:47:09.878Z,3.80
2019-02-27T01:49:48.901Z,3.70
2019-02-27T01:52:22.089Z,3.70
2019-02-27T01:54:59.070Z,3.60
2019-02-27T01:57:36.718Z,3.60
2019-02-27T02:00:23.053Z,3.50
2019-02-27T02:02:56.910Z,3.60
2019-02-27T02:05:32.178Z,3.60
2019-02-27T02:08:13.506Z,3.60
2019-02-27T02:10:45.415Z,3.60
2019-02-27T02:13:24.269Z,3.60
2019-02-27T02:16:16.353Z,3.50
2019-02-27T02:19:00.742Z,3.50
2019-02-27T02:21:55.182Z,3.50
2019-02-27T02:24:34.213Z,3.50
2019-02-27T02:27:32.046Z,3.50
2019-02-27T02:30:44.495Z,3.50
2019-02-27T02:33:29.382Z,3.40
2019-02-27T02:36:17.670Z,3.40
2019-02-27T02:39:02.573Z,3.40
2019-02-27T02:41:48.021Z,3.40
2019-02-27T02:44:42.521Z,3.30
2019-02-27T02:47:29.726Z,3.30
2019-02-27T02:50:17.689Z,3.30
2019-02-27T02:53:13.347Z,3.30
2019-02-27T02:56:08.224Z,3.30
2019-02-27T02:58:48.487Z,3.20
2019-02-27T03:01:27.167Z,3.30
2019-02-27T03:04:05.600Z,3.20
2019-02-27T03:06:54.521Z,3.10
2019-02-27T03:09:38.233Z,3.20
2019-02-27T03:12:32.567Z,3.20
2019-02-27T03:15:20.274Z,3.20
2019-02-27T03:18:20.914Z,3.10
2019-02-27T03:21:28.980Z,3.10
2019-02-27T03:24:27.989Z,3.10
2019-02-27T03:27:30.625Z,3.10
2019-02-27T03:30:18.148Z,3.10
2019-02-27T03:33:26.785Z,3.10
2019-02-27T03:36:30.497Z,3.20
2019-02-27T03:39:20.875Z,3.20
2019-02-27T03:42:07.627Z,3.20
2019-02-27T03:45:07.046Z,3.20
2019-02-27T03:47:54.623Z,3.20
2019-02-27T03:50:41.782Z,3.20
2019-02-27T03:53:26.594Z,3.10
2019-02-27T03:56:20.933Z,3.20
2019-02-27T03:59:29.750Z,3.10
2019-02-27T04:02:18.513Z,3.20
2019-02-27T04:05:09.670Z,3.20
2019-02-27T04:08:09.031Z,3.30
2019-02-27T04:10:44.117Z,3.40
2019-02-27T04:13:26.417Z,3.50
2019-02-27T04:15:58.010Z,3.60
2019-02-27T04:18:32.804Z,3.70
2019-02-27T04:21:07.832Z,3.70
2019-02-27T04:23:47.769Z,3.70
2019-02-27T04:26:20.647Z,3.70
2019-02-27T04:28:56.671Z,3.70
2019-02-27T04:31:31.724Z,3.60
2019-02-27T04:34:06.845Z,3.60
2019-02-27T04:36:41.899Z,3.50
2019-02-27T04:39:17.309Z,3.50
2019-02-27T04:41:52.752Z,3.50
2019-02-27T04:44:27.971Z,3.40
2019-02-27T04:47:03.003Z,3.40
2019-02-27T04:49:38.426Z,3.30
2019-02-27T04:52:14.953Z,3.30
2019-02-27T04:54:51.839Z,3.30
2019-02-27T04:57:27.466Z,3.30
2019-02-27T05:00:04.221Z,3.30
2019-02-27T05:02:39.660Z,3.20
2019-02-27T05:05:14.682Z,3.10
2019-02-27T05:07:54.288Z,3.10
2019-02-27T05:10:29.266Z,3.20
2019-02-27T05:13:04.305Z,3.10
2019-02-27T05:15:39.696Z,3.10
2019-02-27T05:18:14.876Z,3.10
2019-02-27T05:20:49.960Z,3.00
2019-02-27T05:23:25.310Z,3.00
2019-02-27T05:26:01.042Z,2.90
2019-02-27T05:28:36.071Z,2.90
2019-02-27T05:31:18.205Z,2.80
2019-02-27T05:33:50.921Z,2.80
2019-02-27T05:36:25.970Z,2.80
2019-02-27T05:39:02.276Z,2.80
2019-02-27T05:41:38.921Z,2.80
2019-02-27T05:44:14.006Z,2.80
2019-02-27T05:46:50.378Z,2.80
2019-02-27T05:49:27.380Z,2.80
2019-02-27T05:52:02.705Z,2.90
2019-02-27T05:54:37.751Z,2.90
2019-02-27T05:57:13.941Z,3.00
2019-02-27T05:59:49.013Z,3.10
2019-02-27T06:02:25.508Z,3.10
2019-02-27T06:05:00.786Z,3.10
2019-02-27T06:07:36.666Z,3.10
2019-02-27T06:10:14.337Z,3.10
2019-02-27T06:12:49.709Z,3.10
2019-02-27T06:15:26.086Z,3.10
2019-02-27T06:18:02.550Z,3.20
2019-02-27T06:20:38.966Z,3.20
2019-02-27T06:23:14.340Z,3.20
2019-02-27T06:25:49.385Z,3.20
2019-02-27T06:28:24.749Z,3.30
2019-02-27T06:31:02.508Z,3.40
2019-02-27T06:33:37.161Z,3.30
2019-02-27T06:36:13.422Z,3.30
2019-02-27T06:38:49.380Z,3.30
2019-02-27T06:41:24.417Z,3.30
2019-02-27T06:44:01.598Z,3.30
2019-02-27T06:46:36.210Z,3.40
2019-02-27T06:49:12.163Z,3.60
2019-02-27T06:51:47.216Z,3.70
2019-02-27T06:54:22.673Z,3.80
2019-02-27T06:56:58.165Z,3.90
2019-02-27T06:59:33.184Z,4.00
2019-02-27T07:02:08.312Z,4.00
2019-02-27T07:04:43.424Z,4.30
2019-02-27T07:07:18.436Z,5.20
2019-02-27T07:09:54.471Z,6.40
2019-02-27T07:12:29.492Z,7.50
2019-02-27T07:15:06.873Z,8.50
2019-02-27T07:17:41.981Z,9.30
2019-02-27T07:20:17.464Z,10.00
2019-02-27T07:22:52.832Z,10.80
2019-02-27T07:25:27.959Z,11.50
2019-02-27T07:28:03.583Z,12.00
2019-02-27T07:30:42.331Z,12.40
2019-02-27T07:33:18.754Z,12.70
2019-02-27T07:35:54.106Z,13.30
2019-02-27T07:38:29.130Z,13.80
2019-02-27T07:41:04.170Z,14.10
2019-02-27T07:43:40.183Z,14.50
2019-02-27T07:46:16.178Z,14.90
2019-02-27T07:48:56.407Z,15.10
2019-02-27T07:51:29.059Z,15.40
2019-02-27T07:54:04.094Z,15.80
2019-02-27T07:56:40.969Z,16.30
2019-02-27T07:59:18.468Z,16.80
2019-02-27T08:01:53.375Z,16.80
2019-02-27T08:04:28.620Z,16.80
2019-02-27T08:07:03.790Z,17.20
2019-02-27T08:09:39.894Z,17.20
2019-02-27T08:12:17.549Z,17.70
2019-02-27T08:14:51.845Z,17.90
2019-02-27T08:17:30.891Z,18.50
2019-02-27T08:20:13.587Z,18.50
2019-02-27T08:22:49.879Z,18.50
2019-02-27T08:25:26.090Z,18.50
2019-02-27T08:28:01.117Z,18.60
2019-02-27T08:30:36.271Z,18.70
2019-02-27T08:33:15.150Z,19.10
2019-02-27T08:35:49.893Z,19.60
2019-02-27T08:38:25.253Z,19.50
2019-02-27T08:41:00.303Z,19.60
2019-02-27T08:43:36.992Z,19.80
2019-02-27T08:46:16.522Z,20.30
2019-02-27T08:48:55.092Z,20.50
2019-02-27T08:51:30.137Z,20.90
2019-02-27T08:54:05.193Z,20.80
2019-02-27T08:56:40.243Z,20.90
2019-02-27T08:59:17.018Z,21.10
2019-02-27T09:01:55.409Z,21.50
2019-02-27T09:04:36.499Z,21.70
2019-02-27T09:07:11.539Z,21.80
2019-02-27T09:09:51.406Z,21.60
2019-02-27T09:12:23.408Z,21.50
2019-02-27T09:14:59.191Z,21.70
2019-02-27T09:17:34.538Z,21.70
2019-02-27T09:20:19.249Z,22.00
2019-02-27T09:22:52.318Z,22.10
2019-02-27T09:25:27.358Z,21.90
2019-02-27T09:28:03.612Z,22.50
2019-02-27T09:30:39.905Z,22.60
2019-02-27T09:33:20.021Z,23.10
2019-02-27T09:35:54.430Z,23.10
2019-02-27T09:38:30.834Z,23.30
2019-02-27T09:41:12.028Z,23.50
2019-02-27T09:43:44.673Z,23.90
2019-02-27T09:46:21.714Z,23.40
2019-02-27T09:48:56.759Z,23.10
2019-02-27T09:51:33.778Z,23.20
2019-02-27T09:54:10.977Z,23.30
2019-02-27T09:56:45.629Z,23.50
2019-02-27T09:59:20.662Z,23.50
2019-02-27T10:01:57.339Z,23.40
2019-02-27T10:04:32.666Z,23.70
2019-02-27T10:07:08.154Z,24.00
2019-02-27T10:09:46.883Z,24.00
2019-02-27T10:12:21.962Z,23.80
2019-02-27T10:14:58.206Z,23.80
2019-02-27T10:22:44.810Z,23.90
2019-02-27T10:25:26.288Z,24.10
2019-02-27T10:28:04.524Z,24.20
2019-02-27T10:30:51.575Z,24.10
2019-02-27T10:33:27.987Z,24.30
2019-02-27T10:36:04.998Z,24.60
2019-02-27T10:38:40.587Z,25.00
2019-02-27T10:41:15.862Z,25.00
2019-02-27T10:43:53.918Z,25.50
2019-02-27T10:46:28.218Z,25.30
2019-02-27T10:49:07.238Z,25.00
2019-02-27T10:51:43.754Z,24.80
2019-02-27T10:54:22.705Z,24.90
2019-02-27T10:56:57.774Z,24.80
2019-02-27T10:59:38.691Z,25.10
2019-02-27T11:02:13.900Z,25.30
2019-02-27T11:04:50.205Z,25.50
2019-02-27T11:07:25.689Z,26.00
2019-02-27T11:10:00.762Z,26.00
2019-02-27T11:12:36.174Z,25.90
2019-02-27T11:15:19.969Z,25.90
2019-02-27T11:17:55.041Z,26.30
2019-02-27T11:23:43.683Z,26.00
2019-02-27T11:26:18.833Z,26.00
2019-02-27T11:29:00.153Z,26.10
2019-02-27T11:31:37.533Z,26.00
2019-02-27T11:34:16.173Z,26.70
2019-02-27T11:36:52.937Z,26.90
2019-02-27T11:39:30.512Z,27.00
2019-02-27T11:42:10.786Z,26.90
2019-02-27T11:45:03.678Z,26.80
2019-02-27T11:47:50.473Z,27.20
2019-02-27T11:50:26.830Z,27.00
2019-02-27T11:53:07.209Z,27.10
2019-02-27T11:55:48.196Z,27.30
2019-02-27T11:58:23.960Z,27.30
2019-02-27T12:00:59.008Z,27.50
2019-02-27T12:03:34.998Z,27.50
2019-02-27T12:06:12.054Z,27.50
2019-02-27T12:08:47.204Z,26.90
2019-02-27T12:11:23.287Z,26.60
2019-02-27T12:13:58.352Z,26.50
2019-02-27T12:16:36.261Z,26.30
2019-02-27T12:19:12.216Z,26.80
2019-02-27T12:24:28.984Z,27.00
2019-02-27T12:27:24.228Z,27.30
2019-02-27T12:29:55.133Z,27.30
2019-02-27T12:32:35.382Z,26.70
2019-02-27T12:35:14.239Z,25.80
2019-02-27T12:37:54.608Z,25.40
2019-02-27T12:40:31.753Z,25.20
2019-02-27T12:43:06.821Z,24.20
2019-02-27T12:45:49.427Z,22.90
2019-02-27T12:48:24.519Z,21.40
2019-02-27T12:51:03.425Z,20.00
2019-02-27T12:53:38.550Z,19.00
2019-02-27T12:56:13.620Z,18.30
2019-02-27T12:58:48.654Z,17.90
2019-02-27T13:01:23.693Z,17.50
2019-02-27T13:03:59.660Z,17.20
2019-02-27T13:06:37.215Z,17.00
2019-02-27T13:09:11.469Z,16.80
2019-02-27T13:11:47.711Z,16.60
2019-02-27T13:14:22.756Z,16.50
2019-02-27T13:16:58.138Z,16.40
2019-02-27T13:19:38.416Z,16.20
2019-02-27T13:22:12.193Z,16.10
2019-02-27T13:24:50.326Z,16.00
2019-02-27T13:27:25.219Z,15.90
2019-02-27T13:30:08.608Z,15.80
2019-02-27T13:32:39.136Z,15.70
2019-02-27T13:35:14.600Z,15.60
2019-02-27T13:37:49.684Z,15.60
2019-02-27T13:40:35.254Z,15.60
2019-02-27T13:43:06.614Z,15.50
2019-02-27T13:45:41.744Z,15.40
2019-02-27T13:48:18.153Z,15.40
2019-02-27T13:50:53.184Z,15.40
2019-02-27T13:53:28.327Z,15.30
2019-02-27T13:56:03.347Z,15.30
2019-02-27T13:58:38.915Z,15.20
2019-02-27T14:01:15.020Z,15.30
2019-02-27T14:03:51.601Z,15.30
2019-02-27T14:06:26.955Z,15.30
2019-02-27T14:09:04.373Z,15.40
2019-02-27T14:11:41.401Z,15.40
2019-02-27T14:14:17.650Z,15.40
2019-02-27T14:16:53.431Z,15.40
2019-02-27T14:19:28.901Z,15.30
2019-02-27T14:22:07.482Z,15.20
2019-02-27T14:24:42.248Z,15.20
2019-02-27T14:27:18.317Z,15.10
2019-02-27T14:29:53.624Z,15.10
2019-02-27T14:32:28.924Z,15.10
2019-02-27T14:35:04.939Z,15.10
2019-02-27T14:37:40.346Z,15.10
2019-02-27T14:40:18.857Z,15.00
2019-02-27T14:42:55.007Z,15.10
2019-02-27T14:45:30.390Z,15.00
2019-02-27T14:48:06.955Z,14.90
2019-02-27T14:50:42.100Z,14.90
2019-02-27T14:53:19.734Z,15.00
2019-02-27T14:55:54.065Z,14.90
2019-02-27T14:58:33.416Z,14.80
2019-02-27T15:01:11.860Z,14.80
2019-02-27T15:03:47.356Z,14.80
2019-02-27T15:06:23.813Z,14.80
2019-02-27T15:09:03.069Z,14.70
2019-02-27T15:11:37.552Z,14.70
2019-02-27T15:14:13.983Z,14.70
2019-02-27T15:16:50.405Z,14.60
2019-02-27T15:19:26.846Z,14.60
2019-02-27T15:22:03.765Z,14.60
2019-02-27T15:24:39.809Z,14.60
2019-02-27T15:27:14.976Z,14.50
2019-02-27T15:29:51.446Z,14.50
2019-02-27T15:32:29.427Z,14.50
2019-02-27T15:35:03.383Z,14.50
2019-02-27T15:37:38.646Z,14.50
2019-02-27T15:40:18.743Z,14.50
2019-02-27T15:42:55.794Z,14.50
2019-02-27T15:45:32.152Z,14.50
2019-02-27T15:48:09.237Z,14.40
2019-02-27T15:50:44.601Z,14.40
2019-02-27T15:53:19.931Z,14.40
2019-02-27T15:55:55.970Z,14.40
2019-02-27T15:58:32.343Z,14.30
2019-02-27T16:01:09.326Z,14.30
2019-02-27T16:03:45.568Z,14.20
2019-02-27T16:06:22.517Z,14.10
2019-02-27T16:09:02.094Z,14.00
2019-02-27T16:11:39.102Z,13.90
2019-02-27T16:14:14.503Z,13.90
2019-02-27T16:16:49.554Z,13.80
2019-02-27T16:19:28.245Z,13.80
2019-02-27T16:22:03.300Z,13.80
2019-02-27T16:24:40.408Z,13.70
2019-02-27T16:27:17.906Z,13.70
2019-02-27T16:29:54.180Z,13.60
2019-02-27T16:32:30.005Z,13.50
2019-02-27T16:35:08.160Z,13.40
2019-02-27T16:37:43.237Z,13.30
2019-02-27T16:40:20.014Z,13.20
2019-02-27T16:42:55.973Z,13.10
2019-02-27T16:45:38.357Z,12.90
2019-02-27T16:48:13.383Z,12.70
2019-02-27T16:50:48.518Z,12.60
2019-02-27T16:53:24.506Z,12.50
2019-02-27T16:55:59.881Z,12.40
2019-02-27T16:58:35.532Z,12.20
2019-02-27T17:01:16.704Z,12.20
2019-02-27T17:04:00.238Z,12.00
2019-02-27T17:06:31.702Z,12.00
2019-02-27T17:09:10.125Z,11.90
2019-02-27T17:11:45.043Z,11.80
2019-02-27T17:14:21.181Z,11.70
2019-02-27T17:16:57.136Z,11.70
2019-02-27T17:19:36.692Z,11.60
2019-02-27T17:22:11.226Z,11.50
2019-02-27T17:24:48.849Z,11.50
2019-02-27T17:27:24.179Z,11.40
2019-02-27T17:30:00.018Z,11.40
2019-02-27T17:32:38.026Z,11.40
2019-02-27T17:35:13.386Z,11.30
2019-02-27T17:37:49.734Z,11.30
2019-02-27T17:40:24.774Z,11.30
2019-02-27T17:42:59.822Z,11.30
2019-02-27T17:45:34.934Z,11.30
2019-02-27T17:48:12.331Z,11.30
2019-02-27T17:50:46.764Z,11.20
2019-02-27T17:53:23.471Z,11.20
2019-02-27T17:55:58.976Z,11.10
2019-02-27T17:58:35.019Z,11.00
2019-02-27T18:01:13.833Z,11.00
2019-02-27T18:03:50.124Z,10.90
2019-02-27T18:06:25.454Z,10.80
2019-02-27T18:09:00.495Z,10.80
2019-02-27T18:11:38.121Z,10.70
2019-02-27T18:14:14.250Z,10.70
2019-02-27T18:16:49.607Z,10.70
2019-02-27T18:19:24.946Z,10.60
2019-02-27T18:21:59.986Z,10.60
2019-02-27T18:24:35.029Z,10.50
2019-02-27T18:27:10.350Z,10.50
2019-02-27T18:29:46.822Z,10.50
2019-02-27T18:32:22.172Z,10.40
2019-02-27T18:34:57.388Z,10.30
2019-02-27T18:37:33.979Z,10.20
2019-02-27T18:40:11.851Z,10.10
2019-02-27T18:42:48.398Z,10.00
2019-02-27T18:45:26.051Z,9.90
2019-02-27T18:48:01.387Z,9.90
2019-02-27T18:50:36.726Z,9.90
2019-02-27T18:53:13.469Z,9.80
2019-02-27T18:55:49.528Z,9.90
2019-02-27T18:58:24.543Z,9.80
2019-02-27T19:01:00.249Z,9.90
2019-02-27T19:03:35.291Z,9.80
2019-02-27T19:06:12.969Z,9.80
2019-02-27T19:08:48.284Z,9.80
2019-02-27T19:11:24.621Z,9.80
2019-02-27T19:14:02.343Z,9.70
2019-02-27T19:16:36.785Z,9.70
2019-02-27T19:19:13.765Z,9.70
2019-02-27T19:21:50.158Z,9.50
2019-02-27T19:24:27.498Z,9.50
2019-02-27T19:27:03.719Z,9.60
2019-02-27T19:29:39.776Z,9.70
2019-02-27T19:32:15.115Z,9.70
2019-02-27T19:34:50.164Z,9.80
2019-02-27T19:37:25.516Z,9.80
2019-02-27T19:42:58.815Z,9.80
2019-02-27T19:45:35.917Z,9.80
2019-02-27T19:48:11.203Z,9.80
2019-02-27T19:50:46.606Z,9.80
2019-02-27T19:53:22.058Z,9.80
2019-02-27T19:56:00.664Z,9.80
2019-02-27T19:58:34.196Z,9.80
2019-02-27T20:01:09.883Z,9.80
2019-02-27T20:03:45.775Z,9.80
2019-02-27T20:06:21.224Z,9.80
2019-02-27T20:08:56.568Z,9.80
2019-02-27T20:11:31.601Z,9.80
2019-02-27T20:14:06.930Z,9.80
2019-02-27T20:16:42.384Z,9.80
2019-02-27T20:19:22.326Z,9.70
2019-02-27T20:21:54.286Z,9.70
2019-02-27T20:24:35.452Z,9.60
2019-02-27T20:27:10.827Z,9.60
2019-02-27T20:29:46.281Z,9.60
2019-02-27T20:32:21.576Z,9.50
2019-02-27T20:34:56.703Z,9.50
2019-02-27T20:37:32.090Z,9.50
2019-02-27T20:40:09.834Z,9.50
2019-02-27T20:42:49.867Z,9.50
2019-02-27T20:45:23.955Z,9.50
2019-02-27T20:48:01.874Z,9.40
2019-02-27T20:50:41.531Z,9.40
2019-02-27T20:53:16.566Z,9.30
2019-02-27T20:55:51.606Z,9.20
2019-02-27T20:58:26.671Z,9.20
2019-02-27T21:01:02.042Z,9.20
2019-02-27T21:03:37.501Z,9.20
2019-02-27T21:06:13.014Z,9.20
2019-02-27T21:08:49.738Z,9.10
2019-02-27T21:11:29.543Z,9.10
2019-02-27T21:14:02.504Z,9.10
2019-02-27T21:16:40.209Z,9.00
2019-02-27T21:19:16.493Z,9.00
2019-02-27T21:21:54.449Z,8.90
2019-02-27T21:24:30.778Z,8.80
2019-02-27T21:27:05.823Z,8.70
2019-02-27T21:29:43.412Z,8.70
2019-02-27T21:32:18.041Z,8.70
2019-02-27T21:34:55.144Z,8.70
2019-02-27T21:37:31.133Z,8.70
2019-02-27T21:40:09.183Z,8.60
2019-02-27T21:42:44.363Z,8.60
2019-02-27T21:45:23.610Z,8.50
2019-02-27T21:47:58.891Z,8.50
2019-02-27T21:50:34.229Z,8.50
2019-02-27T21:53:09.261Z,8.50
2019-02-27T21:55:44.839Z,8.50
2019-02-27T21:58:20.872Z,8.50
2019-02-27T22:00:56.337Z,8.50
2019-02-27T22:03:31.662Z,8.50
2019-02-27T22:06:06.780Z,8.50
2019-02-27T22:08:42.935Z,8.40
2019-02-27T22:11:17.951Z,8.30
2019-02-27T22:13:54.257Z,8.30
2019-02-27T22:16:30.481Z,8.20
2019-02-27T22:19:05.846Z,8.10
2019-02-27T22:21:40.877Z,8.10
2019-02-27T22:24:20.717Z,8.10
2019-02-27T22:26:53.328Z,8.20
2019-02-27T22:29:29.248Z,8.30
2019-02-27T22:32:04.621Z,8.30
2019-02-27T22:34:39.647Z,8.30
2019-02-27T22:37:17.541Z,8.30
2019-02-27T22:39:53.109Z,8.20
2019-02-27T22:42:28.858Z,8.20
2019-02-27T22:45:04.989Z,8.20
2019-02-27T22:47:40.765Z,8.10
2019-02-27T22:50:20.718Z,8.10
2019-02-27T22:52:56.171Z,8.00
2019-02-27T22:55:31.517Z,7.90
2019-02-27T22:58:06.530Z,7.90
2019-02-27T23:00:56.558Z,8.00
2019-02-27T23:03:39.686Z,7.90
2019-02-27T23:06:14.714Z,7.90
2019-02-27T23:08:50.133Z,8.00
2019-02-27T23:11:25.157Z,7.90
2019-02-27T23:14:00.395Z,8.00
2019-02-27T23:16:36.387Z,8.00
2019-02-27T23:19:13.096Z,8.10
2019-02-27T23:21:48.257Z,8.20
2019-02-27T23:24:23.898Z,8.20
2019-02-27T23:27:00.002Z,8.30
2019-02-27T23:29:39.686Z,8.30
2019-02-27T23:32:13.035Z,8.30
2019-02-27T23:34:48.806Z,8.30
2019-02-27T23:37:23.837Z,8.20
2019-02-27T23:40:00.291Z,8.20
2019-02-27T23:42:38.708Z,8.10
2019-02-27T23:45:13.834Z,8.10
2019-02-27T23:47:48.841Z,8.00
2019-02-27T23:50:24.092Z,8.00
2019-02-27T23:52:59.128Z,8.00
2019-02-27T23:55:34.213Z,8.00
2019-02-27T23:58:09.532Z,8.00
